Time;durP1;ratioP1;P1;durP2;ratioP2;P2;SDS_P1;SDS_P2;PMS_P1;PMS_P2;Temp;Humidity;BMP_temperature;BMP_pressure;BME280_temperature;BME280_humidity;BME280_pressure;Samples;Min_cycle;Max_cycle;Signal;HPM_P1;HPM_P2
2021/04/27 00:04:45;;;;;;;11.03;7.37;;;;;;;-0.52;100.00;100623.31;21037327;28;20271;-59
2021/04/27 01:24:34;;;;;;;10.00;6.93;;;;;;;-0.94;100.00;100602.91;20940670;27;891093;-59
2021/04/27 01:34:38;;;;;;;10.27;6.80;;;;;;;-0.98;100.00;100607.34;20944260;28;20792;-58
2021/04/27 02:14:29;;;;;;;79.73;26.63;;;;;;;-1.10;100.00;100603.13;20965966;27;20626;-59
2021/04/27 03:04:14;;;;;;;18.33;11.33;;;;;;;-1.53;100.00;100601.88;20976045;27;21052;-66
2021/04/27 03:24:10;;;;;;;12.40;9.13;;;;;;;-1.46;100.00;100609.66;20978669;27;20531;-69
2021/04/27 03:44:08;;;;;;;14.53;9.27;;;;;;;-1.21;100.00;100612.84;20791883;28;20331;-59
2021/04/27 04:14:00;;;;;;;16.10;10.80;;;;;;;1.35;100.00;100612.00;21117903;27;20306;-61
2021/04/27 04:34:00;;;;;;;9.47;8.10;;;;;;;2.91;100.00;100640.56;20949964;28;20332;-64
2021/04/27 04:44:01;;;;;;;10.47;7.90;;;;;;;3.37;100.00;100639.25;20910980;28;20219;-62
2021/04/27 04:54:02;;;;;;;11.57;7.97;;;;;;;3.51;97.20;100629.13;20939650;28;20217;-63
2021/04/27 05:04:03;;;;;;;9.80;7.40;;;;;;;3.52;94.54;100629.09;20813759;28;20228;-63
2021/04/27 05:34:02;;;;;;;11.07;7.53;;;;;;;3.23;93.17;100643.16;20764876;28;21464;-58
2021/04/27 05:54:04;;;;;;;9.23;6.13;;;;;;;3.69;94.55;100648.81;20739218;28;21538;-58
2021/04/27 06:14:00;;;;;;;6.43;5.73;;;;;;;4.27;93.69;100658.38;20803700;27;21166;-58
2021/04/27 06:24:01;;;;;;;6.67;5.87;;;;;;;4.52;90.98;100661.94;20819336;28;20229;-60
2021/04/27 06:34:01;;;;;;;7.03;5.47;;;;;;;4.87;89.14;100662.50;20801097;28;20315;-59
2021/04/27 06:44:03;;;;;;;5.70;4.57;;;;;;;5.22;84.21;100670.00;20811571;28;20479;-59
2021/04/27 06:54:03;;;;;;;4.73;3.70;;;;;;;5.57;79.52;100667.81;20802293;28;20398;-59
2021/04/27 07:04:04;;;;;;;2.63;2.27;;;;;;;5.93;75.24;100666.44;20810616;28;20226;-59
2021/04/27 07:14:04;;;;;;;1.98;1.80;;;;;;;6.17;69.42;100655.78;20807416;28;21445;-59
2021/04/27 07:24:06;;;;;;;1.77;1.67;;;;;;;6.29;67.73;100669.38;20756310;28;20266;-59
2021/04/27 07:34:07;;;;;;;1.40;1.30;;;;;;;6.66;65.71;100675.81;20758364;28;20226;-59
2021/04/27 07:44:07;;;;;;;1.70;1.60;;;;;;;7.02;64.19;100673.34;20738856;28;20224;-60
2021/04/27 07:54:08;;;;;;;1.57;1.47;;;;;;;7.15;61.55;100670.09;20754595;28;20219;-58
2021/04/27 08:04:08;;;;;;;1.27;1.17;;;;;;;7.40;60.10;100675.16;20737992;28;20224;-61
2021/04/27 08:14:10;;;;;;;1.50;1.40;;;;;;;7.94;59.48;100665.56;20753024;28;20339;-66
2021/04/27 08:24:10;;;;;;;1.87;1.30;;;;;;;8.18;55.05;100664.38;20739065;28;20216;-66
2021/04/27 08:34:11;;;;;;;1.67;1.17;;;;;;;8.76;57.21;100649.97;20749829;28;20915;-67
2021/04/27 08:44:12;;;;;;;1.30;1.00;;;;;;;10.08;56.36;100661.41;20744553;28;20233;-64
2021/04/27 08:54:12;;;;;;;1.57;1.47;;;;;;;10.33;53.83;100667.09;20742451;28;20666;-59
2021/04/27 09:04:15;;;;;;;1.60;1.50;;;;;;;10.49;54.29;100660.88;20750696;28;20330;-65
2021/04/27 09:14:23;;;;;;;2.23;1.47;;;;;;;11.42;52.77;100667.63;20732140;28;20961;-60
2021/04/27 09:24:23;;;;;;;1.97;1.77;;;;;;;13.01;52.21;100662.56;20748826;28;20634;-60
2021/04/27 09:34:26;;;;;;;1.47;1.37;;;;;;;13.18;50.88;100655.09;20726901;28;20212;-60
2021/04/27 09:44:33;;;;;;;2.70;1.47;;;;;;;13.08;50.54;100656.66;20745803;28;20586;-66
2021/04/27 09:54:34;;;;;;;1.20;1.10;;;;;;;13.28;51.93;100653.47;20731020;28;20608;-61
2021/04/27 10:04:35;;;;;;;2.00;1.30;;;;;;;13.55;50.15;100644.47;20740409;28;20227;-60
2021/04/27 10:14:35;;;;;;;2.17;1.90;;;;;;;13.40;48.68;100645.56;20736240;28;20344;-62
2021/04/27 10:24:37;;;;;;;1.30;1.20;;;;;;;13.75;48.09;100646.59;20738353;28;20634;-64
2021/04/27 10:34:58;;;;;;;1.97;1.63;;;;;;;13.41;41.56;100652.63;20752713;28;20228;-66
2021/04/27 10:45:05;;;;;;;1.70;1.60;;;;;;;13.51;45.92;100637.63;20755897;28;20692;-62
2021/04/27 10:55:30;;;;;;;1.30;1.30;;;;;;;14.15;43.17;100628.41;20732944;28;20237;-62
2021/04/27 11:05:30;;;;;;;2.10;1.60;;;;;;;14.13;46.83;100624.16;20759921;28;20234;-65
2021/04/27 11:15:33;;;;;;;1.63;1.53;;;;;;;13.84;45.58;100624.44;20746328;28;20906;-62
2021/04/27 11:25:34;;;;;;;1.53;1.43;;;;;;;14.09;45.95;100622.66;20752442;28;20238;-60
2021/04/27 11:35:42;;;;;;;1.73;1.63;;;;;;;14.30;43.85;100610.31;20748514;28;20250;-59
2021/04/27 11:45:45;;;;;;;1.30;1.20;;;;;;;15.07;41.83;100617.78;20741885;28;20296;-58
2021/04/27 11:55:51;;;;;;;2.83;2.00;;;;;;;14.57;44.47;100612.78;20754484;28;20229;-58
2021/04/27 12:06:18;;;;;;;2.10;1.60;;;;;;;14.82;36.55;100607.22;20735453;28;20288;-58
2021/04/27 12:16:21;;;;;;;1.23;1.13;;;;;;;14.39;43.39;100604.25;20751842;28;20276;-59
2021/04/27 12:26:22;;;;;;;1.60;1.50;;;;;;;15.12;43.79;100599.44;20736092;28;21313;-58
2021/04/27 12:36:38;;;;;;;1.73;1.50;;;;;;;15.00;38.62;100594.19;20760395;28;20230;-58
2021/04/27 12:46:49;;;;;;;1.70;1.30;;;;;;;14.67;39.10;100595.84;20734790;28;21001;-63
2021/04/27 12:57:04;;;;;;;2.33;1.30;;;;;;;14.07;40.09;100588.72;20750810;28;20227;-61
2021/04/27 13:07:05;;;;;;;1.23;1.13;;;;;;;12.42;42.01;100582.69;20755323;28;20238;-63
2021/04/27 13:17:07;;;;;;;1.20;1.10;;;;;;;11.96;45.06;100573.31;20743837;28;20252;-61
2021/04/27 13:27:10;;;;;;;1.33;1.23;;;;;;;12.08;44.35;100561.81;20735202;28;20227;-63
2021/04/27 13:37:11;;;;;;;1.00;1.00;;;;;;;12.15;45.63;100494.44;20740482;28;20310;-59
2021/04/27 13:47:11;;;;;;;1.00;0.93;;;;;;;12.63;44.33;100537.53;20747555;28;20250;-59
2021/04/27 13:57:12;;;;;;;1.87;1.30;;;;;;;12.33;43.86;100529.75;20731856;28;20243;-60
2021/04/27 14:07:12;;;;;;;1.60;1.10;;;;;;;11.40;43.88;100517.22;20748668;28;20638;-59
2021/04/27 14:17:13;;;;;;;1.30;1.20;;;;;;;10.85;43.92;100492.31;20730430;28;20232;-59
2021/04/27 14:27:14;;;;;;;1.40;1.30;;;;;;;10.33;45.82;100523.06;20752018;28;20239;-60
2021/04/27 14:37:14;;;;;;;1.90;1.20;;;;;;;10.26;46.10;100505.72;20751522;28;20261;-60
2021/04/27 14:47:16;;;;;;;1.97;1.30;;;;;;;10.29;45.45;100508.16;20770802;28;20878;-60
2021/04/27 14:57:17;;;;;;;1.10;1.00;;;;;;;10.28;46.84;100495.78;20773339;28;20376;-59
2021/04/27 15:07:17;;;;;;;1.40;1.30;;;;;;;10.49;46.91;100495.44;20772146;28;20239;-61
2021/04/27 15:17:18;;;;;;;1.45;1.30;;;;;;;10.70;47.62;100494.13;20766642;28;20235;-60
2021/04/27 15:27:18;;;;;;;3.10;1.60;;;;;;;10.85;48.88;100471.81;20768218;28;20936;-68
2021/04/27 15:37:19;;;;;;;1.40;1.30;;;;;;;10.93;47.49;100450.81;20747107;28;20287;-65
2021/04/27 15:47:19;;;;;;;2.05;1.13;;;;;;;11.09;48.39;100464.06;20711972;28;20322;-66
2021/04/27 15:57:20;;;;;;;1.30;1.20;;;;;;;10.95;47.32;100459.59;20722377;28;20442;-66
2021/04/27 16:07:20;;;;;;;2.23;1.40;;;;;;;10.61;46.88;100452.00;20717421;28;20239;-63
2021/04/27 16:17:21;;;;;;;1.23;1.13;;;;;;;10.41;48.52;100454.06;20708466;28;20228;-62
2021/04/27 16:27:21;;;;;;;1.43;1.33;;;;;;;10.25;48.61;100445.31;20761656;28;20335;-61
2021/04/27 16:47:23;;;;;;;1.43;1.23;;;;;;;9.97;48.42;100435.41;20799254;27;20580;-60
2021/04/27 16:57:24;;;;;;;3.40;1.30;;;;;;;9.77;50.00;100448.22;20776799;28;20809;-63
2021/04/27 17:07:25;;;;;;;1.53;1.30;;;;;;;9.60;51.22;100442.06;20766868;28;20239;-60
2021/04/27 17:17:26;;;;;;;1.67;1.20;;;;;;;10.28;50.45;100439.78;20760611;28;20316;-62
2021/04/27 17:27:26;;;;;;;1.70;1.60;;;;;;;10.66;48.13;100444.53;20784794;28;20234;-64
2021/04/27 17:37:29;;;;;;;4.23;2.93;;;;;;;10.51;49.61;100449.03;20780870;28;20222;-61
2021/04/27 17:47:33;;;;;;;8.03;3.97;;;;;;;9.82;51.50;100446.97;20814743;28;20807;-60
2021/04/27 17:57:34;;;;;;;4.33;3.70;;;;;;;8.98;51.32;100445.63;20746630;28;20234;-67
2021/04/27 18:07:35;;;;;;;4.47;3.47;;;;;;;8.15;51.60;100451.88;20808212;28;20231;-63
2021/04/27 18:17:36;;;;;;;3.00;2.70;;;;;;;7.47;52.16;100458.91;20795555;28;20216;-69
2021/04/27 18:27:37;;;;;;;2.43;2.23;;;;;;;6.92;53.92;100451.84;20807995;28;20247;-60
2021/04/27 18:37:38;;;;;;;2.40;2.10;;;;;;;6.53;54.83;100460.72;20799235;28;20216;-64
2021/04/27 18:47:38;;;;;;;3.83;2.20;;;;;;;6.08;58.32;100461.84;20798428;28;20231;-61
2021/04/27 19:07:34;;;;;;;8.13;5.13;;;;;;;5.57;62.83;100474.59;20785931;28;21017;-59
2021/04/27 19:17:35;;;;;;;4.87;3.63;;;;;;;5.27;66.68;100471.41;20789368;28;20269;-64
2021/04/27 19:37:33;;;;;;;43.63;20.27;;;;;;;4.68;70.72;100483.41;20880229;27;20560;-66
2021/04/27 19:57:31;;;;;;;47.80;25.73;;;;;;;4.17;74.77;100480.00;20709754;28;20595;-61
2021/04/27 20:07:32;;;;;;;31.00;16.43;;;;;;;3.87;77.33;100480.16;20696572;28;20220;-67
2021/04/27 20:27:27;;;;;;;33.27;19.07;;;;;;;3.25;78.18;100480.47;20927857;27;1006624;-64
2021/04/27 20:57:17;;;;;;;11.70;7.23;;;;;;;2.95;84.09;100489.31;20908303;27;923109;-62
2021/04/27 21:07:18;;;;;;;33.20;15.33;;;;;;;2.82;85.07;100495.88;20974060;28;20249;-68
2021/04/27 21:17:18;;;;;;;35.50;18.87;;;;;;;2.57;83.88;100471.16;20957544;28;20257;-62
2021/04/27 22:36:58;;;;;;;31.03;15.37;;;;;;;1.94;88.31;100519.41;21098207;27;860585;-66
2021/04/27 22:46:59;;;;;;;25.80;13.67;;;;;;;1.69;88.19;100501.59;21104292;28;20228;-70
2021/04/27 23:36:58;;;;;;;14.73;9.40;;;;;;;1.90;81.32;100502.84;20857721;27;20598;-67
2021/04/27 23:56:56;;;;;;;14.20;9.20;;;;;;;2.05;78.65;100493.69;20936823;27;20596;-61
